Sunday, November 18, 2018, 9:22 AM EST
Back to Local

KMUI, Muir Army Air Field / Indiantown

Location: Jonestown, PA, United States Lat: 40.433
Local Time: 9:22 AM EST (14:22 GMT) Lon: -76.567
Time Zone: US/Eastern Elev: 488 ft

Show me the last for .
Show Decoded

2018-11-18 07:56 METAR KMUI 181256Z AUTO 00000KT 10SM OVC040 02/00 A3036 RMK AO2 SLP288 T00210000
                 $ =
2018-11-18 06:56 METAR KMUI 181156Z AUTO 00000KT 10SM OVC044 02/M01 A3034 RMK AO2 SLP281
                 T00201006 10041 20008 53007 $ =
2018-11-18 05:56 METAR KMUI 181056Z AUTO 00000KT 10SM OVC049 01/M01 A3033 RMK AO2 SLP278
                 T00121007 $ =
2018-11-18 04:56 METAR KMUI 180956Z AUTO 00000KT 10SM FEW050 BKN095 01/M01 A3032 RMK AO2 SLP274
                 T00081008 $ =
2018-11-18 03:56 METAR KMUI 180856Z AUTO 00000KT 10SM BKN100 02/M01 A3032 RMK AO2 SLP274
                 T00211012 52006 $ =
2018-11-18 02:56 METAR KMUI 180756Z AUTO 00000KT 10SM OVC100 03/M01 A3031 RMK AO2 SLP270
                 T00281008 $ =
2018-11-18 01:56 METAR KMUI 180656Z AUTO 31005KT 10SM OVC110 04/M01 A3031 RMK AO2 SLP270
                 T00381014 $ =
2018-11-18 00:56 METAR KMUI 180556Z AUTO 00000KT 10SM OVC120 03/M01 A3031 RMK AO2 SLP270
                 T00311007 10058 20031 50001 $ =
2018-11-17 23:56 METAR KMUI 180456Z AUTO 26004KT 10SM SCT100 OVC120 05/M01 A3030 RMK AO2 SLP267
                 T00491013 400800028 $ =
2018-11-17 22:56 METAR KMUI 180356Z AUTO 25004KT 10SM OVC110 05/M02 A3031 RMK AO2 SLP270
                 T00481016 $ =
2018-11-17 21:56 METAR KMUI 180256Z AUTO 27009KT 10SM BKN035 OVC110 05/M02 A3030 RMK AO2 SLP267
                 T00521017 52009 $ =
2018-11-17 19:56 METAR KMUI 180056Z AUTO 28004KT 10SM OVC034 06/M02 A3029 RMK AO2 SLP264
                 T00561016 $ =
2018-11-17 18:56 METAR KMUI 172356Z AUTO 28006KT 10SM OVC036 06/M02 A3027 RMK AO2 SLP257
                 T00571017 10080 20057 52012 $ =
2018-11-17 17:56 METAR KMUI 172256Z AUTO 27007KT 10SM OVC037 06/M02 A3026 RMK AO2 SLP254
                 T00601021 $ =
2018-11-17 16:56 METAR KMUI 172156Z AUTO 26006KT 10SM OVC038 06/M02 A3025 RMK AO2 SLP250
                 T00621019 $ =
2018-11-17 15:56 METAR KMUI 172056Z AUTO 29011G19KT 10SM BKN038 07/M02 A3024 RMK AO2 SLP247
                 T00701019 53012 $ =
2018-11-17 14:56 METAR KMUI 171956Z AUTO 30011G17KT 10SM OVC200 08/M02 A3020 RMK AO2 SLP233
                 T00761016 $ =
2018-11-17 13:56 METAR KMUI 171856Z AUTO 26010KT 10SM BKN041 08/M02 A3020 RMK AO2 SLP233
                 T00761016 $ =
2018-11-17 12:56 METAR KMUI 171756Z AUTO 26008KT 10SM OVC039 07/M02 A3020 RMK AO2 SLP233
                 T00701017 10070 20039 58003 $ =
2018-11-17 11:56 METAR KMUI 171656Z AUTO 29008G16KT 10SM OVC038 07/M02 A3022 RMK AO2 SLP240
                 T00671017 $ =
2018-11-17 10:56 METAR KMUI 171556Z AUTO 24010G16KT 10SM OVC035 06/M01 A3023 RMK AO2 SLP243
                 T00591015 $ =
2018-11-17 09:56 METAR KMUI 171456Z AUTO 27010G17KT 10SM SCT033 OVC042 06/M01 A3021 RMK AO2
                 SLP236 T00581014 53012 $ =

Support USWX by starting your Amazon purchase here.